sensor_id;sensor_type;location;lat;lon;timestamp;temperature;humidity
13744;DHT22;6943;52.368;9.966;2023-09-12T00:00:51;21.30;1.00
13744;DHT22;6943;52.368;9.966;2023-09-12T00:03:21;21.20;99.90
13744;DHT22;6943;52.368;9.966;2023-09-12T00:05:54;21.10;1.00
13744;DHT22;6943;52.368;9.966;2023-09-12T00:08:20;22.30;1.00
13744;DHT22;6943;52.368;9.966;2023-09-12T00:10:46;21.00;1.00
13744;DHT22;6943;52.368;9.966;2023-09-12T00:13:11;21.00;99.90
13744;DHT22;6943;52.368;9.966;2023-09-12T00:15:37;21.00;99.90
13744;DHT22;6943;52.368;9.966;2023-09-12T00:18:03;20.90;99.90
13744;DHT22;6943;52.368;9.966;2023-09-12T00:20:28;20.90;1.00
13744;DHT22;6943;52.368;9.966;2023-09-12T00:22:54;20.80;1.00
13744;DHT22;6943;52.368;9.966;2023-09-12T00:25:20;20.60;1.00
13744;DHT22;6943;52.368;9.966;2023-09-12T00:27:46;20.70;1.00
13744;DHT22;6943;52.368;9.966;2023-09-12T00:30:13;20.60;92.70
13744;DHT22;6943;52.368;9.966;2023-09-12T00:32:38;20.60;99.90
13744;DHT22;6943;52.368;9.966;2023-09-12T00:35:04;20.70;99.90
13744;DHT22;6943;52.368;9.966;2023-09-12T00:37:30;20.70;99.90
13744;DHT22;6943;52.368;9.966;2023-09-12T00:39:55;20.60;99.90
13744;DHT22;6943;52.368;9.966;2023-09-12T00:42:21;20.60;99.90
13744;DHT22;6943;52.368;9.966;2023-09-12T00:44:46;20.50;99.90
13744;DHT22;6943;52.368;9.966;2023-09-12T00:47:13;20.50;1.00
13744;DHT22;6943;52.368;9.966;2023-09-12T00:49:39;20.40;1.00
13744;DHT22;6943;52.368;9.966;2023-09-12T00:52:06;20.40;1.00
13744;DHT22;6943;52.368;9.966;2023-09-12T00:54:31;20.40;1.00
13744;DHT22;6943;52.368;9.966;2023-09-12T00:56:57;20.30;1.00
13744;DHT22;6943;52.368;9.966;2023-09-12T00:59:22;20.30;1.00
13744;DHT22;6943;52.368;9.966;2023-09-12T01:01:48;20.30;1.00
13744;DHT22;6943;52.368;9.966;2023-09-12T02:05:57;19.70;99.90
13744;DHT22;6943;52.368;9.966;2023-09-12T02:08:22;19.70;99.90
13744;DHT22;6943;52.368;9.966;2023-09-12T02:10:48;19.70;99.90
13744;DHT22;6943;52.368;9.966;2023-09-12T02:13:13;19.70;99.90
13744;DHT22;6943;52.368;9.966;2023-09-12T02:15:39;19.70;99.90
13744;DHT22;6943;52.368;9.966;2023-09-12T02:18:04;19.70;99.90
13744;DHT22;6943;52.368;9.966;2023-09-12T02:20:31;19.70;99.90
13744;DHT22;6943;52.368;9.966;2023-09-12T02:22:57;19.70;99.90
13744;DHT22;6943;52.368;9.966;2023-09-12T02:25:23;19.70;99.90
13744;DHT22;6943;52.368;9.966;2023-09-12T02:27:48;19.70;99.90
13744;DHT22;6943;52.368;9.966;2023-09-12T02:30:14;19.70;99.90
13744;DHT22;6943;52.368;9.966;2023-09-12T02:32:42;19.70;99.90
13744;DHT22;6943;52.368;9.966;2023-09-12T02:35:07;19.70;99.90
13744;DHT22;6943;52.368;9.966;2023-09-12T02:37:33;19.70;99.90
13744;DHT22;6943;52.368;9.966;2023-09-12T02:39:58;19.60;99.90
13744;DHT22;6943;52.368;9.966;2023-09-12T02:42:24;19.60;99.90
13744;DHT22;6943;52.368;9.966;2023-09-12T02:44:50;19.50;99.90
13744;DHT22;6943;52.368;9.966;2023-09-12T02:47:17;19.50;99.90
13744;DHT22;6943;52.368;9.966;2023-09-12T02:49:43;19.50;99.90
13744;DHT22;6943;52.368;9.966;2023-09-12T02:52:08;19.50;99.90
13744;DHT22;6943;52.368;9.966;2023-09-12T02:54:34;19.50;99.90
13744;DHT22;6943;52.368;9.966;2023-09-12T02:57:00;19.60;99.90
13744;DHT22;6943;52.368;9.966;2023-09-12T02:59:25;19.60;99.90
13744;DHT22;6943;52.368;9.966;2023-09-12T03:01:50;19.60;99.90
13744;DHT22;6943;52.368;9.966;2023-09-12T03:04:16;19.60;99.90
13744;DHT22;6943;52.368;9.966;2023-09-12T03:06:42;19.60;99.90
13744;DHT22;6943;52.368;9.966;2023-09-12T03:09:07;19.60;99.90
13744;DHT22;6943;52.368;9.966;2023-09-12T03:11:33;19.60;99.90
13744;DHT22;6943;52.368;9.966;2023-09-12T03:13:58;19.50;99.90
13744;DHT22;6943;52.368;9.966;2023-09-12T03:16:24;19.50;99.90
13744;DHT22;6943;52.368;9.966;2023-09-12T03:18:50;19.40;99.90
13744;DHT22;6943;52.368;9.966;2023-09-12T03:21:16;19.40;99.90
13744;DHT22;6943;52.368;9.966;2023-09-12T03:23:41;19.20;99.90
13744;DHT22;6943;52.368;9.966;2023-09-12T03:26:07;19.30;99.90
13744;DHT22;6943;52.368;9.966;2023-09-12T03:28:33;19.30;99.90
13744;DHT22;6943;52.368;9.966;2023-09-12T03:31:07;19.30;99.90
13744;DHT22;6943;52.368;9.966;2023-09-12T03:33:33;19.20;99.90
13744;DHT22;6943;52.368;9.966;2023-09-12T03:35:59;19.20;99.90
13744;DHT22;6943;52.368;9.966;2023-09-12T03:38:24;19.20;99.90
13744;DHT22;6943;52.368;9.966;2023-09-12T03:40:50;19.20;99.90
13744;DHT22;6943;52.368;9.966;2023-09-12T03:43:15;19.20;99.90
13744;DHT22;6943;52.368;9.966;2023-09-12T03:45:41;19.30;99.90
13744;DHT22;6943;52.368;9.966;2023-09-12T03:48:06;19.30;99.90
13744;DHT22;6943;52.368;9.966;2023-09-12T03:50:32;19.30;99.90
13744;DHT22;6943;52.368;9.966;2023-09-12T03:52:57;19.40;99.90
13744;DHT22;6943;52.368;9.966;2023-09-12T03:55:23;19.40;99.90
13744;DHT22;6943;52.368;9.966;2023-09-12T03:57:48;19.40;99.90
13744;DHT22;6943;52.368;9.966;2023-09-12T04:00:14;19.50;99.90
13744;DHT22;6943;52.368;9.966;2023-09-12T04:02:40;19.70;99.90
13744;DHT22;6943;52.368;9.966;2023-09-12T04:05:06;19.70;99.90
13744;DHT22;6943;52.368;9.966;2023-09-12T04:07:31;19.80;99.90
13744;DHT22;6943;52.368;9.966;2023-09-12T04:09:57;19.80;99.90
13744;DHT22;6943;52.368;9.966;2023-09-12T04:12:22;19.90;99.90
13744;DHT22;6943;52.368;9.966;2023-09-12T04:14:49;19.90;99.90
13744;DHT22;6943;52.368;9.966;2023-09-12T04:17:16;19.90;99.90
13744;DHT22;6943;52.368;9.966;2023-09-12T04:19:41;19.90;99.90
13744;DHT22;6943;52.368;9.966;2023-09-12T04:22:07;20.00;99.90
13744;DHT22;6943;52.368;9.966;2023-09-12T04:24:32;20.00;99.90
13744;DHT22;6943;52.368;9.966;2023-09-12T04:26:58;19.90;99.90
13744;DHT22;6943;52.368;9.966;2023-09-12T04:29:23;19.90;99.90
13744;DHT22;6943;52.368;9.966;2023-09-12T04:31:49;19.80;99.90
13744;DHT22;6943;52.368;9.966;2023-09-12T04:34:15;19.90;99.90
13744;DHT22;6943;52.368;9.966;2023-09-12T04:36:41;19.80;99.90
13744;DHT22;6943;52.368;9.966;2023-09-12T04:39:06;19.70;99.90
13744;DHT22;6943;52.368;9.966;2023-09-12T04:41:32;19.70;99.90
13744;DHT22;6943;52.368;9.966;2023-09-12T04:43:57;19.70;99.90
13744;DHT22;6943;52.368;9.966;2023-09-12T04:46:25;19.70;99.90
13744;DHT22;6943;52.368;9.966;2023-09-12T04:48:50;19.70;99.90
13744;DHT22;6943;52.368;9.966;2023-09-12T04:51:15;19.70;99.90
13744;DHT22;6943;52.368;9.966;2023-09-12T04:53:41;19.70;99.90
13744;DHT22;6943;52.368;9.966;2023-09-12T04:56:07;19.70;99.90
13744;DHT22;6943;52.368;9.966;2023-09-12T04:58:35;19.70;99.90
13744;DHT22;6943;52.368;9.966;2023-09-12T05:01:00;19.70;99.90
13744;DHT22;6943;52.368;9.966;2023-09-12T05:03:25;19.60;99.90
13744;DHT22;6943;52.368;9.966;2023-09-12T05:05:52;19.60;99.90
13744;DHT22;6943;52.368;9.966;2023-09-12T05:08:17;19.70;99.90
13744;DHT22;6943;52.368;9.966;2023-09-12T05:10:46;19.70;99.90
13744;DHT22;6943;52.368;9.966;2023-09-12T05:13:12;19.70;99.90
13744;DHT22;6943;52.368;9.966;2023-09-12T05:15:38;19.80;99.90
13744;DHT22;6943;52.368;9.966;2023-09-12T05:18:05;20.10;99.90
13744;DHT22;6943;52.368;9.966;2023-09-12T05:20:31;20.30;99.90
13744;DHT22;6943;52.368;9.966;2023-09-12T05:22:57;20.40;1.00
13744;DHT22;6943;52.368;9.966;2023-09-12T05:25:22;20.80;1.00
13744;DHT22;6943;52.368;9.966;2023-09-12T05:27:47;21.10;1.00
13744;DHT22;6943;52.368;9.966;2023-09-12T05:30:13;21.20;1.00
13744;DHT22;6943;52.368;9.966;2023-09-12T05:32:40;21.10;1.00
13744;DHT22;6943;52.368;9.966;2023-09-12T05:35:06;21.10;1.00
13744;DHT22;6943;52.368;9.966;2023-09-12T05:37:31;21.00;1.00
13744;DHT22;6943;52.368;9.966;2023-09-12T05:39:57;20.90;1.00
13744;DHT22;6943;52.368;9.966;2023-09-12T05:42:22;20.80;1.00
13744;DHT22;6943;52.368;9.966;2023-09-12T05:44:49;20.80;1.00
13744;DHT22;6943;52.368;9.966;2023-09-12T05:47:15;20.70;1.00
13744;DHT22;6943;52.368;9.966;2023-09-12T05:49:41;20.70;1.00
13744;DHT22;6943;52.368;9.966;2023-09-12T05:52:07;20.60;21.70
13744;DHT22;6943;52.368;9.966;2023-09-12T05:54:32;20.50;50.40
13744;DHT22;6943;52.368;9.966;2023-09-12T05:56:58;20.40;78.90
13744;DHT22;6943;52.368;9.966;2023-09-12T05:59:23;20.40;99.90
13744;DHT22;6943;52.368;9.966;2023-09-12T06:01:49;20.30;99.90
13744;DHT22;6943;52.368;9.966;2023-09-12T06:04:14;20.20;99.90
13744;DHT22;6943;52.368;9.966;2023-09-12T06:06:40;20.20;99.90
13744;DHT22;6943;52.368;9.966;2023-09-12T06:09:05;20.10;99.90
13744;DHT22;6943;52.368;9.966;2023-09-12T06:11:31;20.00;99.90
13744;DHT22;6943;52.368;9.966;2023-09-12T06:13:57;20.00;99.90
13744;DHT22;6943;52.368;9.966;2023-09-12T06:16:22;20.00;99.90
13744;DHT22;6943;52.368;9.966;2023-09-12T06:18:48;20.00;99.90
13744;DHT22;6943;52.368;9.966;2023-09-12T06:21:14;20.00;99.90
13744;DHT22;6943;52.368;9.966;2023-09-12T06:23:39;19.90;83.70
13744;DHT22;6943;52.368;9.966;2023-09-12T06:26:05;19.90;99.90
13744;DHT22;6943;52.368;9.966;2023-09-12T06:28:31;19.80;99.90
13744;DHT22;6943;52.368;9.966;2023-09-12T06:30:57;19.60;99.90
13744;DHT22;6943;52.368;9.966;2023-09-12T06:33:24;19.60;99.90
13744;DHT22;6943;52.368;9.966;2023-09-12T06:35:50;19.60;99.90
13744;DHT22;6943;52.368;9.966;2023-09-12T06:38:18;19.50;99.90
13744;DHT22;6943;52.368;9.966;2023-09-12T06:40:44;19.40;99.90
13744;DHT22;6943;52.368;9.966;2023-09-12T06:43:09;19.40;99.90
13744;DHT22;6943;52.368;9.966;2023-09-12T06:45:35;19.40;99.90
13744;DHT22;6943;52.368;9.966;2023-09-12T06:48:03;19.40;99.90
13744;DHT22;6943;52.368;9.966;2023-09-12T06:50:29;19.40;99.90
13744;DHT22;6943;52.368;9.966;2023-09-12T06:52:54;19.30;99.90
13744;DHT22;6943;52.368;9.966;2023-09-12T06:55:20;19.10;99.90
13744;DHT22;6943;52.368;9.966;2023-09-12T06:57:45;19.00;99.90
13744;DHT22;6943;52.368;9.966;2023-09-12T07:00:12;18.80;99.90
13744;DHT22;6943;52.368;9.966;2023-09-12T07:02:38;18.80;99.90
13744;DHT22;6943;52.368;9.966;2023-09-12T07:05:04;18.80;99.90
13744;DHT22;6943;52.368;9.966;2023-09-12T07:07:30;18.80;99.90
13744;DHT22;6943;52.368;9.966;2023-09-12T07:09:56;19.00;99.90
13744;DHT22;6943;52.368;9.966;2023-09-12T07:12:21;19.00;99.90
13744;DHT22;6943;52.368;9.966;2023-09-12T07:14:47;18.90;99.90
13744;DHT22;6943;52.368;9.966;2023-09-12T07:17:12;18.90;99.90
13744;DHT22;6943;52.368;9.966;2023-09-12T07:19:38;18.90;99.90
13744;DHT22;6943;52.368;9.966;2023-09-12T07:22:04;18.80;99.90
13744;DHT22;6943;52.368;9.966;2023-09-12T07:24:29;18.80;99.90
13744;DHT22;6943;52.368;9.966;2023-09-12T07:26:55;18.80;99.90
13744;DHT22;6943;52.368;9.966;2023-09-12T07:29:20;18.90;99.90
13744;DHT22;6943;52.368;9.966;2023-09-12T07:31:45;19.00;99.90
13744;DHT22;6943;52.368;9.966;2023-09-12T07:34:11;19.00;99.90
13744;DHT22;6943;52.368;9.966;2023-09-12T07:36:40;19.00;99.90
13744;DHT22;6943;52.368;9.966;2023-09-12T07:39:05;19.10;99.90
13744;DHT22;6943;52.368;9.966;2023-09-12T07:41:31;19.10;99.90
13744;DHT22;6943;52.368;9.966;2023-09-12T07:43:57;19.20;99.90
13744;DHT22;6943;52.368;9.966;2023-09-12T07:46:22;19.30;99.90
13744;DHT22;6943;52.368;9.966;2023-09-12T07:48:48;19.30;99.90
13744;DHT22;6943;52.368;9.966;2023-09-12T07:51:15;19.30;99.90
13744;DHT22;6943;52.368;9.966;2023-09-12T07:53:41;19.30;99.90
13744;DHT22;6943;52.368;9.966;2023-09-12T07:56:08;19.40;99.90
13744;DHT22;6943;52.368;9.966;2023-09-12T07:58:33;19.40;99.90
13744;DHT22;6943;52.368;9.966;2023-09-12T08:00:59;19.70;99.90
13744;DHT22;6943;52.368;9.966;2023-09-12T08:03:24;19.90;99.90
13744;DHT22;6943;52.368;9.966;2023-09-12T08:05:57;20.00;99.90
13744;DHT22;6943;52.368;9.966;2023-09-12T08:08:23;20.30;99.90
13744;DHT22;6943;52.368;9.966;2023-09-12T08:10:49;20.50;99.90
13744;DHT22;6943;52.368;9.966;2023-09-12T08:13:14;21.00;99.90
13744;DHT22;6943;52.368;9.966;2023-09-12T08:15:40;21.70;1.00
13744;DHT22;6943;52.368;9.966;2023-09-12T08:18:05;22.50;99.90
13744;DHT22;6943;52.368;9.966;2023-09-12T08:20:31;23.20;1.00
13744;DHT22;6943;52.368;9.966;2023-09-12T08:22:56;24.10;1.00
13744;DHT22;6943;52.368;9.966;2023-09-12T08:25:22;24.70;1.00
13744;DHT22;6943;52.368;9.966;2023-09-12T08:27:48;24.70;1.00
13744;DHT22;6943;52.368;9.966;2023-09-12T08:30:15;24.10;99.90
13744;DHT22;6943;52.368;9.966;2023-09-12T08:32:41;24.00;1.00
13744;DHT22;6943;52.368;9.966;2023-09-12T08:35:10;23.90;99.90
13744;DHT22;6943;52.368;9.966;2023-09-12T08:37:36;23.60;1.00
13744;DHT22;6943;52.368;9.966;2023-09-12T08:40:01;23.50;1.00
13744;DHT22;6943;52.368;9.966;2023-09-12T08:42:27;23.40;99.90
13744;DHT22;6943;52.368;9.966;2023-09-12T08:44:53;23.30;99.90
13744;DHT22;6943;52.368;9.966;2023-09-12T08:47:19;23.10;1.00
13744;DHT22;6943;52.368;9.966;2023-09-12T08:49:48;23.10;1.00
13744;DHT22;6943;52.368;9.966;2023-09-12T08:52:13;23.30;99.90
13744;DHT22;6943;52.368;9.966;2023-09-12T08:54:39;23.30;85.20
13744;DHT22;6943;52.368;9.966;2023-09-12T08:57:05;23.30;1.00
13744;DHT22;6943;52.368;9.966;2023-09-12T08:59:33;23.30;1.00
13744;DHT22;6943;52.368;9.966;2023-09-12T09:02:00;23.30;99.90
13744;DHT22;6943;52.368;9.966;2023-09-12T09:04:28;23.10;1.00
13744;DHT22;6943;52.368;9.966;2023-09-12T09:06:57;23.10;1.00
13744;DHT22;6943;52.368;9.966;2023-09-12T09:09:23;23.00;1.00
13744;DHT22;6943;52.368;9.966;2023-09-12T09:11:50;22.40;99.90
13744;DHT22;6943;52.368;9.966;2023-09-12T09:14:15;22.20;99.90
13744;DHT22;6943;52.368;9.966;2023-09-12T09:16:41;22.00;1.00
13744;DHT22;6943;52.368;9.966;2023-09-12T09:19:06;22.30;1.00
13744;DHT22;6943;52.368;9.966;2023-09-12T09:21:36;22.40;1.00
13744;DHT22;6943;52.368;9.966;2023-09-12T09:24:08;22.70;99.90
13744;DHT22;6943;52.368;9.966;2023-09-12T09:26:42;22.90;1.00
13744;DHT22;6943;52.368;9.966;2023-09-12T09:29:10;23.10;1.00
13744;DHT22;6943;52.368;9.966;2023-09-12T09:31:39;23.10;1.00
13744;DHT22;6943;52.368;9.966;2023-09-12T09:34:14;23.10;1.00
13744;DHT22;6943;52.368;9.966;2023-09-12T09:36:57;23.00;1.00
13744;DHT22;6943;52.368;9.966;2023-09-12T09:39:25;22.90;1.00
13744;DHT22;6943;52.368;9.966;2023-09-12T09:41:53;22.70;99.90
13744;DHT22;6943;52.368;9.966;2023-09-12T09:44:24;22.50;99.90
13744;DHT22;6943;52.368;9.966;2023-09-12T09:47:00;22.40;1.00
13744;DHT22;6943;52.368;9.966;2023-09-12T09:49:31;22.50;99.90
13744;DHT22;6943;52.368;9.966;2023-09-12T09:51:56;22.60;1.00
13744;DHT22;6943;52.368;9.966;2023-09-12T09:54:25;22.60;99.90
13744;DHT22;6943;52.368;9.966;2023-09-12T09:56:55;22.50;1.00
13744;DHT22;6943;52.368;9.966;2023-09-12T09:59:22;22.40;1.00
13744;DHT22;6943;52.368;9.966;2023-09-12T10:01:49;22.30;1.00
13744;DHT22;6943;52.368;9.966;2023-09-12T10:04:16;22.30;99.90
13744;DHT22;6943;52.368;9.966;2023-09-12T10:06:46;22.30;98.00
13744;DHT22;6943;52.368;9.966;2023-09-12T10:09:13;22.30;99.90
13744;DHT22;6943;52.368;9.966;2023-09-12T10:11:40;22.20;1.00
13744;DHT22;6943;52.368;9.966;2023-09-12T10:14:07;22.10;1.00
13744;DHT22;6943;52.368;9.966;2023-09-12T10:16:34;22.10;99.90
13744;DHT22;6943;52.368;9.966;2023-09-12T10:19:11;22.10;1.00
13744;DHT22;6943;52.368;9.966;2023-09-12T10:21:49;22.40;99.90
13744;DHT22;6943;52.368;9.966;2023-09-12T10:24:15;22.50;1.00
13744;DHT22;6943;52.368;9.966;2023-09-12T10:26:44;22.70;1.00
13744;DHT22;6943;52.368;9.966;2023-09-12T10:29:14;22.80;1.00
13744;DHT22;6943;52.368;9.966;2023-09-12T10:31:43;22.90;99.90
13744;DHT22;6943;52.368;9.966;2023-09-12T10:34:11;23.00;99.90
13744;DHT22;6943;52.368;9.966;2023-09-12T10:36:39;23.00;10.70
13744;DHT22;6943;52.368;9.966;2023-09-12T10:39:07;23.10;99.90
13744;DHT22;6943;52.368;9.966;2023-09-12T10:41:33;23.10;1.00
13744;DHT22;6943;52.368;9.966;2023-09-12T10:44:04;23.10;1.00
13744;DHT22;6943;52.368;9.966;2023-09-12T10:46:38;23.10;1.00
13744;DHT22;6943;52.368;9.966;2023-09-12T10:49:09;23.10;1.00
13744;DHT22;6943;52.368;9.966;2023-09-12T10:51:43;23.20;1.00
13744;DHT22;6943;52.368;9.966;2023-09-12T10:54:13;23.40;1.00
13744;DHT22;6943;52.368;9.966;2023-09-12T10:56:39;23.40;99.90
13744;DHT22;6943;52.368;9.966;2023-09-12T11:01:32;23.10;1.00
13744;DHT22;6943;52.368;9.966;2023-09-12T11:04:02;22.90;1.00
13744;DHT22;6943;52.368;9.966;2023-09-12T11:06:45;22.80;1.00
13744;DHT22;6943;52.368;9.966;2023-09-12T11:11:40;22.80;99.90
13744;DHT22;6943;52.368;9.966;2023-09-12T11:14:07;22.50;1.00
13744;DHT22;6943;52.368;9.966;2023-09-12T11:16:32;22.50;1.00
13744;DHT22;6943;52.368;9.966;2023-09-12T11:19:21;22.80;1.00
13744;DHT22;6943;52.368;9.966;2023-09-12T11:21:50;23.00;92.30
13744;DHT22;6943;52.368;9.966;2023-09-12T11:24:17;23.00;1.00
13744;DHT22;6943;52.368;9.966;2023-09-12T11:27:00;22.70;1.00
13744;DHT22;6943;52.368;9.966;2023-09-12T11:29:33;22.70;99.90
13744;DHT22;6943;52.368;9.966;2023-09-12T11:32:00;22.70;99.90
13744;DHT22;6943;52.368;9.966;2023-09-12T11:34:29;22.60;99.90
13744;DHT22;6943;52.368;9.966;2023-09-12T11:36:58;22.40;1.00
13744;DHT22;6943;52.368;9.966;2023-09-12T11:39:31;22.10;1.00
13744;DHT22;6943;52.368;9.966;2023-09-12T11:41:59;21.80;1.00
13744;DHT22;6943;52.368;9.966;2023-09-12T11:44:25;21.70;99.90
13744;DHT22;6943;52.368;9.966;2023-09-12T11:46:52;21.60;99.90
13744;DHT22;6943;52.368;9.966;2023-09-12T11:49:18;21.60;1.00
13744;DHT22;6943;52.368;9.966;2023-09-12T11:54:15;21.60;99.90
13744;DHT22;6943;52.368;9.966;2023-09-12T11:56:42;21.40;1.00
13744;DHT22;6943;52.368;9.966;2023-09-12T11:59:08;21.40;1.00
13744;DHT22;6943;52.368;9.966;2023-09-12T12:01:33;21.30;99.90
13744;DHT22;6943;52.368;9.966;2023-09-12T12:03:59;21.30;99.90
13744;DHT22;6943;52.368;9.966;2023-09-12T12:06:24;21.20;1.00
13744;DHT22;6943;52.368;9.966;2023-09-12T12:08:50;21.10;1.00
13744;DHT22;6943;52.368;9.966;2023-09-12T12:11:19;21.10;1.00
13744;DHT22;6943;52.368;9.966;2023-09-12T12:13:45;21.00;1.00
13744;DHT22;6943;52.368;9.966;2023-09-12T12:16:17;21.00;1.00
13744;DHT22;6943;52.368;9.966;2023-09-12T12:18:43;20.90;1.00
13744;DHT22;6943;52.368;9.966;2023-09-12T12:21:08;20.80;1.00
13744;DHT22;6943;52.368;9.966;2023-09-12T12:23:34;20.50;1.00
13744;DHT22;6943;52.368;9.966;2023-09-12T12:26:09;20.20;99.90
13744;DHT22;6943;52.368;9.966;2023-09-12T12:28:35;19.70;99.90
13744;DHT22;6943;52.368;9.966;2023-09-12T12:31:01;19.30;99.90
13744;DHT22;6943;52.368;9.966;2023-09-12T12:33:27;19.30;99.90
13744;DHT22;6943;52.368;9.966;2023-09-12T12:36:05;19.00;99.90
13744;DHT22;6943;52.368;9.966;2023-09-12T12:38:37;18.80;99.90
13744;DHT22;6943;52.368;9.966;2023-09-12T12:41:03;18.70;99.90
13744;DHT22;6943;52.368;9.966;2023-09-12T12:43:30;18.60;99.90
13744;DHT22;6943;52.368;9.966;2023-09-12T12:45:57;18.70;99.90
13744;DHT22;6943;52.368;9.966;2023-09-12T12:48:34;18.70;99.90
13744;DHT22;6943;52.368;9.966;2023-09-12T12:51:13;18.70;99.90
13744;DHT22;6943;52.368;9.966;2023-09-12T12:53:43;18.80;99.90
13744;DHT22;6943;52.368;9.966;2023-09-12T12:56:10;19.00;99.90
13744;DHT22;6943;52.368;9.966;2023-09-12T12:58:36;19.20;99.90
13744;DHT22;6943;52.368;9.966;2023-09-12T13:01:01;19.40;99.90
13744;DHT22;6943;52.368;9.966;2023-09-12T13:03:27;19.60;99.90
13744;DHT22;6943;52.368;9.966;2023-09-12T13:05:52;19.90;99.90
13744;DHT22;6943;52.368;9.966;2023-09-12T13:08:18;20.10;99.90
13744;DHT22;6943;52.368;9.966;2023-09-12T13:10:44;21.10;99.90
13744;DHT22;6943;52.368;9.966;2023-09-12T13:13:10;20.40;99.90
13744;DHT22;6943;52.368;9.966;2023-09-12T13:15:35;20.50;99.90
13744;DHT22;6943;52.368;9.966;2023-09-12T13:18:01;20.70;99.90
13744;DHT22;6943;52.368;9.966;2023-09-12T13:20:26;20.70;99.90
13744;DHT22;6943;52.368;9.966;2023-09-12T13:22:52;21.00;99.90
13744;DHT22;6943;52.368;9.966;2023-09-12T13:25:18;21.00;99.90
13744;DHT22;6943;52.368;9.966;2023-09-12T13:27:45;21.20;1.00
13744;DHT22;6943;52.368;9.966;2023-09-12T13:30:11;21.40;1.00
13744;DHT22;6943;52.368;9.966;2023-09-12T13:32:36;21.70;1.00
13744;DHT22;6943;52.368;9.966;2023-09-12T13:35:02;22.00;1.00
13744;DHT22;6943;52.368;9.966;2023-09-12T13:37:28;22.30;1.00
13744;DHT22;6943;52.368;9.966;2023-09-12T13:39:55;22.50;1.00
13744;DHT22;6943;52.368;9.966;2023-09-12T13:42:20;22.80;1.00
13744;DHT22;6943;52.368;9.966;2023-09-12T13:44:49;23.10;1.00
13744;DHT22;6943;52.368;9.966;2023-09-12T13:47:15;23.50;88.80
13744;DHT22;6943;52.368;9.966;2023-09-12T13:49:47;23.80;1.00
13744;DHT22;6943;52.368;9.966;2023-09-12T13:52:13;24.10;1.00
13744;DHT22;6943;52.368;9.966;2023-09-12T13:54:40;23.70;1.00
13744;DHT22;6943;52.368;9.966;2023-09-12T13:57:05;23.70;1.00
13744;DHT22;6943;52.368;9.966;2023-09-12T13:59:31;23.80;6.00
13744;DHT22;6943;52.368;9.966;2023-09-12T14:01:56;23.90;99.90
13744;DHT22;6943;52.368;9.966;2023-09-12T14:04:22;24.00;1.00
13744;DHT22;6943;52.368;9.966;2023-09-12T14:06:47;24.10;1.00
13744;DHT22;6943;52.368;9.966;2023-09-12T14:09:13;24.00;99.90
13744;DHT22;6943;52.368;9.966;2023-09-12T14:11:38;24.10;1.00
13744;DHT22;6943;52.368;9.966;2023-09-12T14:14:05;24.20;99.90
13744;DHT22;6943;52.368;9.966;2023-09-12T14:16:31;24.20;1.00
13744;DHT22;6943;52.368;9.966;2023-09-12T14:18:56;24.20;1.00
13744;DHT22;6943;52.368;9.966;2023-09-12T14:21:22;24.20;1.00
13744;DHT22;6943;52.368;9.966;2023-09-12T14:23:47;24.20;99.90
13744;DHT22;6943;52.368;9.966;2023-09-12T14:26:13;24.30;99.90
13744;DHT22;6943;52.368;9.966;2023-09-12T14:28:38;24.30;99.90
13744;DHT22;6943;52.368;9.966;2023-09-12T14:31:04;24.40;92.40
13744;DHT22;6943;52.368;9.966;2023-09-12T14:33:31;24.40;1.00
13744;DHT22;6943;52.368;9.966;2023-09-12T14:35:57;24.50;1.00
13744;DHT22;6943;52.368;9.966;2023-09-12T14:38:22;24.60;1.00
13744;DHT22;6943;52.368;9.966;2023-09-12T14:40:49;24.50;2.40
13744;DHT22;6943;52.368;9.966;2023-09-12T14:43:14;24.40;1.00
13744;DHT22;6943;52.368;9.966;2023-09-12T14:45:40;24.40;1.00
13744;DHT22;6943;52.368;9.966;2023-09-12T14:48:06;24.40;1.00
13744;DHT22;6943;52.368;9.966;2023-09-12T14:50:32;24.30;1.00
13744;DHT22;6943;52.368;9.966;2023-09-12T14:52:58;24.20;1.00
13744;DHT22;6943;52.368;9.966;2023-09-12T14:55:23;24.20;1.00
13744;DHT22;6943;52.368;9.966;2023-09-12T14:57:49;24.10;1.00
13744;DHT22;6943;52.368;9.966;2023-09-12T15:00:15;24.00;46.60
13744;DHT22;6943;52.368;9.966;2023-09-12T15:02:40;23.80;99.90
13744;DHT22;6943;52.368;9.966;2023-09-12T15:05:07;23.80;99.90
13744;DHT22;6943;52.368;9.966;2023-09-12T15:07:33;24.00;99.90
13744;DHT22;6943;52.368;9.966;2023-09-12T15:09:59;24.00;35.60
13744;DHT22;6943;52.368;9.966;2023-09-12T15:12:25;23.90;1.00
13744;DHT22;6943;52.368;9.966;2023-09-12T15:14:51;23.90;52.30
13744;DHT22;6943;52.368;9.966;2023-09-12T15:17:17;23.80;1.00
13744;DHT22;6943;52.368;9.966;2023-09-12T15:19:43;23.80;1.00
13744;DHT22;6943;52.368;9.966;2023-09-12T15:22:09;23.70;39.50
13744;DHT22;6943;52.368;9.966;2023-09-12T15:24:34;23.70;99.90
13744;DHT22;6943;52.368;9.966;2023-09-12T15:26:59;23.60;1.00
13744;DHT22;6943;52.368;9.966;2023-09-12T15:29:25;23.60;1.00
13744;DHT22;6943;52.368;9.966;2023-09-12T15:31:51;23.60;99.90
13744;DHT22;6943;52.368;9.966;2023-09-12T15:34:16;23.50;99.90
13744;DHT22;6943;52.368;9.966;2023-09-12T15:36:46;23.60;93.40
13744;DHT22;6943;52.368;9.966;2023-09-12T15:39:12;23.60;99.90
13744;DHT22;6943;52.368;9.966;2023-09-12T15:41:38;23.50;99.90
13744;DHT22;6943;52.368;9.966;2023-09-12T15:44:04;23.40;99.90
13744;DHT22;6943;52.368;9.966;2023-09-12T15:46:30;23.40;1.00
13744;DHT22;6943;52.368;9.966;2023-09-12T15:48:55;23.40;1.00
13744;DHT22;6943;52.368;9.966;2023-09-12T15:51:21;23.30;1.00
13744;DHT22;6943;52.368;9.966;2023-09-12T15:53:47;23.30;1.00
13744;DHT22;6943;52.368;9.966;2023-09-12T15:56:13;23.20;1.00
13744;DHT22;6943;52.368;9.966;2023-09-12T15:58:39;23.20;1.00
13744;DHT22;6943;52.368;9.966;2023-09-12T16:01:04;23.20;99.90
13744;DHT22;6943;52.368;9.966;2023-09-12T16:03:31;23.10;1.00
13744;DHT22;6943;52.368;9.966;2023-09-12T16:05:57;23.10;99.90
13744;DHT22;6943;52.368;9.966;2023-09-12T16:08:22;23.10;99.90
13744;DHT22;6943;52.368;9.966;2023-09-12T16:10:48;23.10;1.00
13744;DHT22;6943;52.368;9.966;2023-09-12T16:13:15;23.00;99.90
13744;DHT22;6943;52.368;9.966;2023-09-12T16:15:40;22.90;99.90
13744;DHT22;6943;52.368;9.966;2023-09-12T16:18:06;22.80;1.00
13744;DHT22;6943;52.368;9.966;2023-09-12T16:20:32;22.60;1.00
13744;DHT22;6943;52.368;9.966;2023-09-12T16:22:57;22.30;1.00
13744;DHT22;6943;52.368;9.966;2023-09-12T16:25:23;22.10;1.00
13744;DHT22;6943;52.368;9.966;2023-09-12T16:27:49;22.00;1.00
13744;DHT22;6943;52.368;9.966;2023-09-12T16:30:14;21.80;99.90
13744;DHT22;6943;52.368;9.966;2023-09-12T16:32:40;21.70;1.00
13744;DHT22;6943;52.368;9.966;2023-09-12T16:35:06;21.60;1.00
13744;DHT22;6943;52.368;9.966;2023-09-12T16:37:32;21.50;1.00
13744;DHT22;6943;52.368;9.966;2023-09-12T16:39:58;21.40;1.00
13744;DHT22;6943;52.368;9.966;2023-09-12T16:42:23;21.30;1.00
13744;DHT22;6943;52.368;9.966;2023-09-12T16:44:51;21.30;99.90
13744;DHT22;6943;52.368;9.966;2023-09-12T16:47:17;21.20;99.90
13744;DHT22;6943;52.368;9.966;2023-09-12T16:49:42;21.20;99.90
13744;DHT22;6943;52.368;9.966;2023-09-12T16:52:08;21.10;1.00
13744;DHT22;6943;52.368;9.966;2023-09-12T16:54:36;21.10;1.00
13744;DHT22;6943;52.368;9.966;2023-09-12T16:57:02;21.00;1.00